createdAt,value
2022-10-01T00:01:35.286Z,95466.25
2022-10-01T00:04:01.208Z,95461.72
2022-10-01T00:06:27.003Z,95456.06
2022-10-01T00:08:52.728Z,95440.09
2022-10-01T00:11:24.466Z,95441.44
2022-10-01T00:13:51.546Z,95429.25
2022-10-01T00:16:24.363Z,95436.09
2022-10-01T00:18:52.945Z,95434.03
2022-10-01T00:21:21.616Z,95423.38
2022-10-01T00:23:52.310Z,95424.00
2022-10-01T00:26:20.737Z,95409.06
2022-10-01T00:28:52.933Z,95411.78
2022-10-01T00:31:18.754Z,95391.22
2022-10-01T00:33:44.594Z,95400.53
2022-10-01T00:36:11.317Z,95388.13
2022-10-01T00:38:39.506Z,95393.94
2022-10-01T00:41:08.566Z,95385.00
2022-10-01T00:43:37.199Z,95387.09
2022-10-01T00:46:08.816Z,95369.34
2022-10-01T00:48:43.762Z,95369.25
2022-10-01T00:51:10.850Z,95367.50
2022-10-01T00:53:37.728Z,95359.63
2022-10-01T00:56:05.421Z,95362.84
2022-10-01T00:58:34.371Z,95351.59
2022-10-01T01:01:00.168Z,95342.53
2022-10-01T01:03:26.094Z,95347.06
2022-10-01T01:05:52.065Z,95342.63
2022-10-01T01:08:18.005Z,95330.53
2022-10-01T01:10:57.066Z,95337.28
2022-10-01T01:13:52.069Z,95326.06
2022-10-01T01:16:34.595Z,95324.84
2022-10-01T01:19:07.993Z,95326.09
2022-10-01T01:21:43.538Z,95320.03
2022-10-01T01:24:32.182Z,95320.94
2022-10-01T01:27:25.201Z,95326.09
2022-10-01T01:30:20.308Z,95322.88
2022-10-01T01:32:52.083Z,95321.91
2022-10-01T01:35:52.488Z,95309.53
2022-10-01T01:38:27.199Z,95311.41
2022-10-01T01:40:57.864Z,95306.66
2022-10-01T01:43:29.096Z,95319.09
2022-10-01T01:45:54.883Z,95305.09
2022-10-01T01:48:25.564Z,95309.72
2022-10-01T01:51:05.269Z,95301.06
2022-10-01T01:53:31.462Z,95290.56
2022-10-01T01:55:59.555Z,95290.78
2022-10-01T01:58:27.107Z,95295.94
2022-10-01T02:00:53.105Z,95285.72
2022-10-01T02:03:25.880Z,95271.41
2022-10-01T02:06:09.633Z,95263.94
2022-10-01T02:08:47.245Z,95254.72
2022-10-01T02:11:24.223Z,95250.50
2022-10-01T02:14:14.390Z,95233.59
2022-10-01T02:16:55.281Z,95258.22
2022-10-01T02:19:29.823Z,95229.69
2022-10-01T02:22:36.865Z,95222.84
2022-10-01T02:25:05.388Z,95216.50
2022-10-01T02:27:49.984Z,95195.34
2022-10-01T02:30:16.785Z,95191.31
2022-10-01T02:32:45.603Z,95177.81
2022-10-01T02:35:15.928Z,95163.19
2022-10-01T02:37:45.214Z,95166.66
2022-10-01T02:40:15.413Z,95167.41
2022-10-01T02:42:54.880Z,95158.00
2022-10-01T02:45:23.552Z,95166.78
2022-10-01T02:47:56.509Z,95163.59
2022-10-01T02:50:27.399Z,95168.44
2022-10-01T02:53:08.910Z,95144.94
2022-10-01T02:55:40.003Z,95146.59
2022-10-01T02:58:07.012Z,95149.22
2022-10-01T03:00:33.129Z,95152.88
2022-10-01T03:02:58.976Z,95141.66
2022-10-01T03:05:25.127Z,95162.78
2022-10-01T03:07:51.838Z,95158.38
2022-10-01T03:10:17.841Z,95151.47
2022-10-01T03:12:45.619Z,95156.22
2022-10-01T03:15:12.959Z,95154.69
2022-10-01T03:17:38.715Z,95160.16
2022-10-01T03:20:05.800Z,95154.53
2022-10-01T03:22:32.694Z,95148.03
2022-10-01T03:24:59.023Z,95173.84
2022-10-01T03:27:24.909Z,95154.63
2022-10-01T03:29:51.012Z,95144.31
2022-10-01T03:32:17.366Z,95128.75
2022-10-01T03:34:43.367Z,95129.91
2022-10-01T03:37:09.428Z,95108.63
2022-10-01T03:39:35.367Z,95099.25
2022-10-01T03:42:01.385Z,95088.47
2022-10-01T03:44:29.974Z,95093.78
2022-10-01T03:46:55.778Z,95101.56
2022-10-01T03:49:21.680Z,95086.88
2022-10-01T03:51:47.501Z,95098.28
2022-10-01T03:54:13.305Z,95099.38
2022-10-01T03:56:42.027Z,95103.84
2022-10-01T03:59:10.631Z,95098.91
2022-10-01T04:01:36.926Z,95076.84
2022-10-01T04:04:03.390Z,95091.81
2022-10-01T04:06:30.232Z,95093.03
2022-10-01T04:08:56.173Z,95095.13
2022-10-01T04:11:21.986Z,95081.56
2022-10-01T04:13:48.066Z,95084.94
2022-10-01T04:16:15.283Z,95087.31
2022-10-01T04:18:41.839Z,95096.78
2022-10-01T04:21:07.810Z,95096.28
2022-10-01T04:23:33.782Z,95091.09
2022-10-01T04:26:01.590Z,95097.03
2022-10-01T04:28:28.293Z,95090.25
2022-10-01T04:31:14.148Z,95101.59
2022-10-01T04:33:40.325Z,95092.69
2022-10-01T04:36:06.265Z,95077.75
2022-10-01T04:38:32.133Z,95073.59
2022-10-01T04:40:57.888Z,95075.91
2022-10-01T04:43:23.685Z,95075.66
2022-10-01T04:45:49.468Z,95051.88
2022-10-01T04:48:15.259Z,95038.28
2022-10-01T04:50:41.033Z,95023.22
2022-10-01T04:53:06.773Z,95016.50
2022-10-01T04:55:32.504Z,95022.38
2022-10-01T04:57:58.269Z,95014.97
2022-10-01T05:00:25.674Z,95037.13
2022-10-01T05:02:52.577Z,95042.97
2022-10-01T05:05:21.806Z,95006.13
2022-10-01T05:07:48.344Z,94985.91
2022-10-01T05:10:20.613Z,95016.13
2022-10-01T05:12:47.579Z,95031.31
2022-10-01T05:15:14.409Z,95018.25
2022-10-01T05:17:40.231Z,95035.63
2022-10-01T05:20:07.547Z,95046.13
2022-10-01T05:22:33.397Z,95036.00
2022-10-01T05:24:59.604Z,95027.09
2022-10-01T05:27:26.645Z,95036.88
2022-10-01T05:29:52.867Z,95024.72
2022-10-01T05:32:18.994Z,95029.25
2022-10-01T05:34:44.739Z,95030.81
2022-10-01T05:37:11.244Z,95042.31
2022-10-01T05:39:37.417Z,95055.25
2022-10-01T05:42:06.406Z,95053.69
2022-10-01T05:44:37.003Z,95021.72
2022-10-01T05:47:06.597Z,95024.78
2022-10-01T05:49:32.733Z,95036.09
2022-10-01T05:52:00.207Z,95051.63
2022-10-01T05:54:29.600Z,95042.50
2022-10-01T05:56:58.242Z,95047.16
2022-10-01T05:59:27.337Z,95053.81
2022-10-01T06:01:55.592Z,95052.84
2022-10-01T06:04:21.395Z,95048.03
2022-10-01T06:06:47.140Z,95044.63
2022-10-01T06:09:13.097Z,95048.59
2022-10-01T06:11:39.278Z,95042.78
2022-10-01T06:14:05.639Z,95035.56
2022-10-01T06:16:31.480Z,95052.56
2022-10-01T06:18:57.504Z,95055.00
2022-10-01T06:21:24.459Z,95045.97
2022-10-01T06:23:51.014Z,95070.34
2022-10-01T06:26:17.370Z,95064.31
2022-10-01T06:28:43.134Z,95066.72
2022-10-01T06:31:08.918Z,95067.72
2022-10-01T06:33:35.532Z,95063.50
2022-10-01T06:36:03.716Z,95066.69
2022-10-01T06:38:30.395Z,95080.09
2022-10-01T06:40:58.176Z,95071.66
2022-10-01T06:43:26.048Z,95079.66
2022-10-01T06:45:52.530Z,95067.00
2022-10-01T06:48:19.658Z,95067.56
2022-10-01T06:50:47.549Z,95060.31
2022-10-01T06:53:14.956Z,95075.03
2022-10-01T06:55:41.390Z,95074.75
2022-10-01T06:58:13.319Z,95077.91
2022-10-01T07:00:39.282Z,95076.06
2022-10-01T07:03:10.336Z,95064.28
2022-10-01T07:05:37.602Z,95067.75
2022-10-01T07:08:04.027Z,95068.06
2022-10-01T07:10:31.452Z,95084.59
2022-10-01T07:13:05.845Z,95078.00
2022-10-01T07:15:31.627Z,95063.53
2022-10-01T07:17:57.405Z,95085.66
2022-10-01T07:20:23.321Z,95081.78
2022-10-01T07:22:55.465Z,95086.31
2022-10-01T07:25:21.358Z,95082.34
2022-10-01T07:27:47.290Z,95093.94
2022-10-01T07:30:13.121Z,95104.25
2022-10-01T07:32:38.974Z,95110.59
2022-10-01T07:35:05.312Z,95108.69
2022-10-01T07:37:31.127Z,95102.72
2022-10-01T07:39:56.863Z,95111.31
2022-10-01T07:42:22.661Z,95101.13
2022-10-01T07:44:48.416Z,95109.50
2022-10-01T07:47:14.441Z,95098.69
2022-10-01T07:49:43.134Z,95112.44
2022-10-01T07:52:13.108Z,95114.47
2022-10-01T07:54:39.617Z,95107.41
2022-10-01T07:57:05.384Z,95103.91
2022-10-01T07:59:31.157Z,95111.00
2022-10-01T08:01:57.028Z,95112.91
2022-10-01T08:04:42.087Z,95099.56
2022-10-01T08:07:08.122Z,95110.34
2022-10-01T08:09:34.357Z,95115.88
2022-10-01T08:12:01.669Z,95106.97
2022-10-01T08:14:27.972Z,95106.78
2022-10-01T08:16:55.169Z,95106.06
2022-10-01T08:19:21.161Z,95109.75
2022-10-01T08:21:47.055Z,95118.75
2022-10-01T08:24:13.513Z,95129.53
2022-10-01T08:26:39.673Z,95124.00
2022-10-01T08:29:05.494Z,95126.84
2022-10-01T08:31:31.567Z,95134.22
2022-10-01T08:33:57.992Z,95133.16
2022-10-01T08:36:23.965Z,95137.91
2022-10-01T08:38:49.772Z,95133.97
2022-10-01T08:41:34.535Z,95139.19
2022-10-01T08:44:04.479Z,95137.84
2022-10-01T08:46:34.434Z,95140.53
2022-10-01T08:49:15.334Z,95158.19
2022-10-01T08:52:06.173Z,95169.28
2022-10-01T08:54:39.155Z,95167.19
2022-10-01T08:57:11.826Z,95169.28
2022-10-01T08:59:40.300Z,95192.19
2022-10-01T09:02:14.730Z,95188.28
2022-10-01T09:04:40.613Z,95184.66
2022-10-01T09:07:29.312Z,95190.16
2022-10-01T09:10:04.697Z,95209.47
2022-10-01T09:12:46.870Z,95199.50
2022-10-01T09:15:27.810Z,95200.34
2022-10-01T09:18:15.299Z,95202.50
2022-10-01T09:20:45.990Z,95203.38
2022-10-01T09:23:20.550Z,95203.91
2022-10-01T09:25:52.477Z,95212.63
2022-10-01T09:28:24.172Z,95212.00
2022-10-01T09:30:56.126Z,95207.84
2022-10-01T09:33:28.875Z,95206.47
2022-10-01T09:36:33.805Z,95205.78
2022-10-01T09:39:28.617Z,95207.69
2022-10-01T09:41:54.459Z,95197.88
2022-10-01T09:44:29.530Z,95198.94
2022-10-01T09:46:55.583Z,95209.19
2022-10-01T09:49:45.368Z,95208.16
2022-10-01T09:52:26.336Z,95212.31
2022-10-01T09:55:17.165Z,95207.84
2022-10-01T09:57:52.620Z,95207.88
2022-10-01T10:00:22.238Z,95212.59
2022-10-01T10:02:53.494Z,95204.44
2022-10-01T10:05:25.280Z,95212.09
2022-10-01T10:07:58.626Z,95217.66
2022-10-01T10:10:36.202Z,95220.78
2022-10-01T10:13:19.381Z,95222.16
2022-10-01T10:16:14.173Z,95218.22
2022-10-01T10:18:40.628Z,95223.72
2022-10-01T10:21:17.349Z,95235.56
2022-10-01T10:23:52.297Z,95231.63
2022-10-01T10:26:27.857Z,95236.06
2022-10-01T10:28:55.761Z,95237.97
2022-10-01T10:31:25.581Z,95243.53
2022-10-01T10:34:01.627Z,95248.28
2022-10-01T10:36:33.596Z,95249.91
2022-10-01T10:39:00.141Z,95258.34
2022-10-01T10:41:28.319Z,95260.97
2022-10-01T10:43:59.824Z,95260.28
2022-10-01T10:46:33.428Z,95269.00
2022-10-01T10:49:05.279Z,95271.13
2022-10-01T10:52:17.519Z,95275.88
2022-10-01T10:54:47.421Z,95282.75
2022-10-01T10:57:20.485Z,95276.72
2022-10-01T11:00:01.247Z,95286.59
2022-10-01T11:02:30.059Z,95290.00
2022-10-01T11:05:04.091Z,95276.56
2022-10-01T11:07:31.187Z,95283.09
2022-10-01T11:10:00.135Z,95274.66
2022-10-01T11:12:26.000Z,95271.78
2022-10-01T11:15:15.081Z,95275.97
2022-10-01T11:18:01.685Z,95286.00
2022-10-01T11:20:49.762Z,95283.91
2022-10-01T11:23:37.305Z,95290.03
2022-10-01T11:26:34.238Z,95293.69
2022-10-01T11:29:18.528Z,95296.88
2022-10-01T11:32:19.409Z,95287.94
2022-10-01T11:35:06.624Z,95298.78
2022-10-01T11:37:41.293Z,95286.94
2022-10-01T11:40:27.876Z,95299.63
2022-10-01T11:43:02.221Z,95298.31
2022-10-01T11:45:35.158Z,95308.88
2022-10-01T11:48:08.377Z,95294.09
2022-10-01T11:50:39.585Z,95313.09
2022-10-01T11:53:30.229Z,95303.59
2022-10-01T11:56:20.156Z,95304.91
2022-10-01T11:59:03.575Z,95311.25
2022-10-01T12:01:47.002Z,95309.41
2022-10-01T12:04:16.717Z,95313.09
2022-10-01T12:06:54.857Z,95316.50
2022-10-01T12:09:29.167Z,95315.13
2022-10-01T12:12:07.055Z,95327.31
2022-10-01T12:14:50.266Z,95326.78
2022-10-01T12:17:34.485Z,95328.38
2022-10-01T12:20:04.958Z,95329.97
2022-10-01T12:22:35.104Z,95340.56
2022-10-01T12:25:01.072Z,95332.34
2022-10-01T12:28:04.946Z,95337.94
2022-10-01T12:30:49.054Z,95342.28
2022-10-01T12:33:44.044Z,95352.91
2022-10-01T12:36:19.227Z,95349.63
2022-10-01T12:38:59.680Z,95343.06
2022-10-01T12:41:48.831Z,95343.97
2022-10-01T12:44:26.480Z,95343.78
2022-10-01T12:47:14.189Z,95343.13
2022-10-01T12:50:07.591Z,95342.88
2022-10-01T12:52:39.298Z,95347.59
2022-10-01T12:55:27.133Z,95347.28
2022-10-01T12:58:16.652Z,95361.56
2022-10-01T13:01:06.254Z,95366.06
2022-10-01T13:03:51.565Z,95370.00
2022-10-01T13:06:36.977Z,95355.66
2022-10-01T13:09:08.475Z,95374.72
2022-10-01T13:11:43.929Z,95383.75
2022-10-01T13:14:12.426Z,95378.25
2022-10-01T13:16:53.674Z,95398.88
2022-10-01T13:19:26.284Z,95397.59
2022-10-01T13:21:57.028Z,95392.31
2022-10-01T13:24:26.643Z,95393.38
2022-10-01T13:26:59.275Z,95406.06
2022-10-01T13:29:53.386Z,95414.78
2022-10-01T13:32:36.758Z,95409.78
2022-10-01T13:35:25.993Z,95421.91
2022-10-01T13:37:52.463Z,95416.09
2022-10-01T13:40:30.378Z,95434.84
2022-10-01T13:43:00.900Z,95421.66
2022-10-01T13:45:38.945Z,95428.00
2022-10-01T13:48:11.907Z,95439.88
2022-10-01T13:50:39.689Z,95429.06
2022-10-01T13:53:14.501Z,95430.34
2022-10-01T13:55:42.380Z,95444.66
2022-10-01T13:58:40.519Z,95431.66
2022-10-01T14:01:26.978Z,95453.00
2022-10-01T14:04:14.039Z,95456.44
2022-10-01T14:07:16.315Z,95456.78
2022-10-01T14:09:49.632Z,95458.19
2022-10-01T14:12:47.480Z,95466.69
2022-10-01T14:15:35.918Z,95472.13
2022-10-01T14:18:15.796Z,95473.44
2022-10-01T14:21:03.074Z,95465.84
2022-10-01T14:23:42.947Z,95483.59
2022-10-01T14:26:21.125Z,95476.94
2022-10-01T14:29:08.188Z,95494.16
2022-10-01T14:31:41.146Z,95495.94
2022-10-01T14:34:23.873Z,95496.09
2022-10-01T14:36:52.810Z,95506.22
2022-10-01T14:39:28.794Z,95505.19
2022-10-01T14:41:56.659Z,95511.28
2022-10-01T14:44:25.415Z,95498.81
2022-10-01T14:46:56.534Z,95494.09
2022-10-01T14:49:32.125Z,95500.16
2022-10-01T14:52:01.917Z,95507.28
2022-10-01T14:54:30.446Z,95514.41
2022-10-01T14:56:56.589Z,95523.63
2022-10-01T14:59:37.070Z,95525.22
2022-10-01T15:02:16.732Z,95522.84
2022-10-01T15:04:47.549Z,95532.63
2022-10-01T15:07:15.381Z,95543.72
2022-10-01T15:09:41.161Z,95546.13
2022-10-01T15:12:08.030Z,95548.44
2022-10-01T15:14:35.889Z,95557.94
2022-10-01T15:17:06.812Z,95547.94
2022-10-01T15:19:42.738Z,95555.63
2022-10-01T15:22:12.110Z,95553.22
2022-10-01T15:24:42.462Z,95558.47
2022-10-01T15:27:10.114Z,95560.28
2022-10-01T15:29:41.377Z,95566.41
2022-10-01T15:32:09.012Z,95565.38
2022-10-01T15:34:38.242Z,95564.81
2022-10-01T15:37:04.380Z,95574.06
2022-10-01T15:39:40.694Z,95571.72
2022-10-01T15:42:18.017Z,95571.19
2022-10-01T15:44:46.203Z,95569.09
2022-10-01T15:47:32.182Z,95579.41
2022-10-01T15:50:10.136Z,95574.94
2022-10-01T15:52:50.807Z,95590.78
2022-10-01T15:55:22.020Z,95592.88
2022-10-01T15:57:53.036Z,95594.41
2022-10-01T16:00:28.042Z,95604.19
2022-10-01T16:02:56.420Z,95603.44
2022-10-01T16:05:25.552Z,95603.94
2022-10-01T16:07:57.724Z,95614.50
2022-10-01T16:10:29.487Z,95614.50
2022-10-01T16:12:55.325Z,95614.66
2022-10-01T16:15:29.700Z,95617.38
2022-10-01T16:18:04.204Z,95623.94
2022-10-01T16:20:37.016Z,95638.50
2022-10-01T16:23:30.703Z,95642.72
2022-10-01T16:25:56.609Z,95654.03
2022-10-01T16:28:31.705Z,95649.56
2022-10-01T16:30:57.701Z,95657.44
2022-10-01T16:33:25.792Z,95660.59
2022-10-01T16:36:08.343Z,95659.59
2022-10-01T16:38:34.126Z,95666.47
2022-10-01T16:41:00.334Z,95670.56
2022-10-01T16:43:26.230Z,95671.88
2022-10-01T16:45:52.535Z,95676.38
2022-10-01T16:48:22.240Z,95686.44
2022-10-01T16:50:48.394Z,95691.09
2022-10-01T16:53:16.178Z,95687.19
2022-10-01T16:55:43.049Z,95688.72
2022-10-01T16:58:09.573Z,95703.63
2022-10-01T17:00:36.465Z,95705.72
2022-10-01T17:03:08.492Z,95709.22
2022-10-01T17:05:36.277Z,95711.44
2022-10-01T17:08:10.436Z,95720.16
2022-10-01T17:10:40.469Z,95714.16
2022-10-01T17:13:06.357Z,95718.84
2022-10-01T17:15:32.580Z,95721.97
2022-10-01T17:17:58.831Z,95729.00
2022-10-01T17:20:27.829Z,95722.22
2022-10-01T17:22:54.830Z,95728.22
2022-10-01T17:25:22.920Z,95734.41
2022-10-01T17:27:49.198Z,95742.84
2022-10-01T17:30:15.714Z,95742.84
2022-10-01T17:32:44.317Z,95745.41
2022-10-01T17:35:11.779Z,95754.19
2022-10-01T17:37:37.912Z,95754.38
2022-10-01T17:40:05.463Z,95757.88
2022-10-01T17:42:33.719Z,95762.09
2022-10-01T17:45:00.426Z,95783.94
2022-10-01T17:47:26.256Z,95781.81
2022-10-01T17:49:52.404Z,95787.94
2022-10-01T17:52:18.388Z,95785.00
2022-10-01T17:54:44.844Z,95789.97
2022-10-01T17:57:11.284Z,95802.38
2022-10-01T17:59:37.566Z,95805.53
2022-10-01T18:02:23.583Z,95809.22
2022-10-01T18:04:52.883Z,95814.31
2022-10-01T18:07:19.594Z,95819.69
2022-10-01T18:09:45.766Z,95825.03
2022-10-01T18:12:12.566Z,95826.31
2022-10-01T18:14:38.557Z,95831.91
2022-10-01T18:17:04.415Z,95841.34
2022-10-01T18:19:52.830Z,95854.50
2022-10-01T18:22:16.450Z,95852.13
2022-10-01T18:24:45.135Z,95854.94
2022-10-01T18:27:12.931Z,95860.59
2022-10-01T18:29:39.293Z,95859.66
2022-10-01T18:32:20.019Z,95869.09
2022-10-01T18:34:54.015Z,95875.56
2022-10-01T18:37:40.194Z,95872.13
2022-10-01T18:40:16.639Z,95872.84
2022-10-01T18:42:45.709Z,95885.66
2022-10-01T18:45:21.772Z,95880.34
2022-10-01T18:48:06.325Z,95882.25
2022-10-01T18:50:46.574Z,95886.84
2022-10-01T18:53:32.801Z,95891.63
2022-10-01T18:56:13.721Z,95887.88
2022-10-01T18:58:56.308Z,95901.84
2022-10-01T19:01:31.211Z,95906.72
2022-10-01T19:04:18.445Z,95919.03
2022-10-01T19:06:48.280Z,95920.53
2022-10-01T19:09:29.643Z,95926.59
2022-10-01T19:12:00.272Z,95925.41
2022-10-01T19:15:06.041Z,95932.97
2022-10-01T19:17:46.621Z,95942.56
2022-10-01T19:20:24.339Z,95937.38
2022-10-01T19:23:05.979Z,95950.91
2022-10-01T19:25:40.553Z,95945.66
2022-10-01T19:28:21.179Z,95952.00
2022-10-01T19:31:38.423Z,95959.72
2022-10-01T19:34:38.511Z,95966.50
2022-10-01T19:37:25.180Z,95965.72
2022-10-01T19:39:55.692Z,95979.56
2022-10-01T19:42:28.864Z,95966.50
2022-10-01T19:45:13.360Z,95968.09
2022-10-01T19:47:39.793Z,95976.41
2022-10-01T19:50:32.127Z,95989.06
2022-10-01T19:52:58.589Z,95995.50
2022-10-01T19:55:29.634Z,96005.09
2022-10-01T19:57:55.738Z,95998.69
2022-10-01T20:00:23.049Z,95998.00
2022-10-01T20:03:29.809Z,96003.97
2022-10-01T20:06:02.808Z,96018.28
2022-10-01T20:08:35.544Z,96023.28
2022-10-01T20:11:18.183Z,96022.97
2022-10-01T20:13:52.740Z,96030.88
2022-10-01T20:16:39.996Z,96028.56
2022-10-01T20:19:41.399Z,96026.53
2022-10-01T20:22:21.771Z,96031.41
2022-10-01T20:25:12.622Z,96035.41
2022-10-01T20:27:50.166Z,96036.00
2022-10-01T20:30:19.433Z,96040.94
2022-10-01T20:32:59.135Z,96038.63
2022-10-01T20:35:29.174Z,96041.63
2022-10-01T20:38:06.135Z,96042.66
2022-10-01T20:40:48.896Z,96051.38
2022-10-01T20:43:20.405Z,96048.75
2022-10-01T20:45:50.643Z,96049.06
2022-10-01T20:48:22.621Z,96049.19
2022-10-01T20:50:53.172Z,96052.69
2022-10-01T20:53:38.176Z,96049.13
2022-10-01T20:56:12.363Z,96055.25
2022-10-01T20:58:44.031Z,96056.09
2022-10-01T21:01:20.390Z,96053.78
2022-10-01T21:03:53.573Z,96057.34
2022-10-01T21:06:32.443Z,96061.59
2022-10-01T21:09:42.001Z,96064.66
2022-10-01T21:12:23.263Z,96068.13
2022-10-01T21:14:56.071Z,96070.72
2022-10-01T21:17:55.936Z,96072.81
2022-10-01T21:20:43.381Z,96082.53
2022-10-01T21:23:27.139Z,96080.69
2022-10-01T21:26:43.568Z,96081.94
2022-10-01T21:29:50.774Z,96093.97
2022-10-01T21:33:00.075Z,96087.94
2022-10-01T21:35:52.148Z,96090.44
2022-10-01T21:38:24.784Z,96098.09
2022-10-01T21:41:12.558Z,96093.88
2022-10-01T21:43:56.804Z,96092.69
2022-10-01T21:46:46.788Z,96097.06
2022-10-01T21:49:28.378Z,96102.44
2022-10-01T21:51:54.471Z,96103.84
2022-10-01T21:54:42.020Z,96106.34
2022-10-01T21:57:10.646Z,96115.72
2022-10-01T21:59:58.417Z,96109.09
2022-10-01T22:02:42.716Z,96116.88
2022-10-01T22:05:22.781Z,96125.00
2022-10-01T22:08:17.898Z,96131.31
2022-10-01T22:10:47.715Z,96134.81
2022-10-01T22:13:22.562Z,96137.13
2022-10-01T22:15:53.511Z,96133.81
2022-10-01T22:18:45.389Z,96136.78
2022-10-01T22:21:16.760Z,96138.72
2022-10-01T22:23:50.004Z,96139.63
2022-10-01T22:26:20.315Z,96148.91
2022-10-01T22:28:53.159Z,96150.16
2022-10-01T22:31:25.315Z,96154.88
2022-10-01T22:33:56.613Z,96152.44
2022-10-01T22:36:30.865Z,96154.63
2022-10-01T22:39:04.041Z,96158.97
2022-10-01T22:41:36.317Z,96157.25
2022-10-01T22:44:11.723Z,96161.50
2022-10-01T22:46:40.687Z,96169.03
2022-10-01T22:49:28.015Z,96164.13
2022-10-01T22:52:23.627Z,96165.50
2022-10-01T22:55:04.330Z,96173.97
2022-10-01T22:58:03.083Z,96179.69
2022-10-01T23:00:35.713Z,96173.03
2022-10-01T23:03:16.534Z,96176.69
2022-10-01T23:05:48.236Z,96169.28
2022-10-01T23:08:27.655Z,96175.09
2022-10-01T23:11:02.544Z,96176.59
2022-10-01T23:13:43.432Z,96174.06
2022-10-01T23:16:18.575Z,96171.88
2022-10-01T23:18:50.128Z,96172.91
2022-10-01T23:21:31.909Z,96174.50
2022-10-01T23:24:31.597Z,96174.44
2022-10-01T23:27:19.327Z,96181.06
2022-10-01T23:30:06.866Z,96170.88
2022-10-01T23:32:32.585Z,96168.25
2022-10-01T23:35:18.719Z,96169.47
2022-10-01T23:37:50.720Z,96172.47
2022-10-01T23:40:20.431Z,96180.56
2022-10-01T23:42:59.006Z,96184.72
2022-10-01T23:45:48.719Z,96180.94
2022-10-01T23:48:29.879Z,96184.72
2022-10-01T23:51:07.031Z,96181.09
2022-10-01T23:53:54.348Z,96189.31
2022-10-01T23:56:50.372Z,96188.97
2022-10-01T23:59:43.977Z,96189.19
